createdAt,value
2019-04-23T00:00:43.640Z,2.00
2019-04-23T00:06:12.104Z,2.10
2019-04-23T00:11:31.305Z,2.20
2019-04-23T00:16:44.816Z,2.17
2019-04-23T00:22:08.784Z,2.10
2019-04-23T00:32:48.059Z,2.08
2019-04-23T00:43:48.727Z,2.03
2019-04-23T00:48:59.224Z,2.17
2019-04-23T00:54:12.207Z,2.10
2019-04-23T00:59:41.158Z,2.07
2019-04-23T01:05:01.298Z,1.70
2019-04-23T01:10:18.372Z,2.08
2019-04-23T01:15:42.515Z,2.05
2019-04-23T01:20:52.831Z,2.10
2019-04-23T01:26:16.547Z,2.12
2019-04-23T01:31:42.766Z,2.53
2019-04-23T01:37:01.073Z,2.67
2019-04-23T01:42:33.427Z,2.20
2019-04-23T01:47:45.449Z,2.50
2019-04-23T02:18:33.826Z,2.83
2019-04-23T02:23:55.624Z,2.30
2019-04-23T02:29:28.658Z,2.83
2019-04-23T02:40:03.979Z,2.72
2019-04-23T02:45:36.115Z,2.83
2019-04-23T03:01:31.998Z,4.07
2019-04-23T03:06:48.086Z,3.50
2019-04-23T03:12:06.955Z,3.40
2019-04-23T03:17:51.910Z,3.67
2019-04-23T03:23:23.166Z,3.60
2019-04-23T03:28:38.094Z,3.60
2019-04-23T03:39:08.334Z,3.87
2019-04-23T03:44:47.900Z,3.70
2019-04-23T03:49:56.018Z,3.60
2019-04-23T03:55:10.205Z,3.97
2019-04-23T04:00:47.385Z,4.00
2019-04-23T04:16:36.156Z,3.53
2019-04-23T04:22:11.440Z,3.57
2019-04-23T04:32:32.857Z,3.47
2019-04-23T04:38:13.011Z,4.07
2019-04-23T04:43:27.085Z,3.87
2019-04-23T04:48:33.523Z,3.57
2019-04-23T04:59:13.983Z,3.90
2019-04-23T05:04:39.912Z,3.83
2019-04-23T05:15:25.545Z,3.70
2019-04-23T05:20:36.645Z,4.30
2019-04-23T05:25:52.888Z,3.80
2019-04-23T05:31:17.560Z,3.40
2019-04-23T05:36:37.469Z,3.60
2019-04-23T05:41:55.742Z,4.27
2019-04-23T05:47:16.626Z,3.63
2019-04-23T05:52:37.892Z,3.83
2019-04-23T05:57:52.474Z,3.93
2019-04-23T06:03:15.936Z,4.10
2019-04-23T06:08:40.926Z,4.17
2019-04-23T06:14:02.373Z,4.30
2019-04-23T06:24:34.957Z,4.40
2019-04-23T06:29:57.013Z,4.40
2019-04-23T06:35:19.116Z,3.60
2019-04-23T06:40:34.305Z,4.80
2019-04-23T06:45:49.741Z,4.57
2019-04-23T06:51:21.737Z,4.20
2019-04-23T06:56:43.345Z,4.30
2019-04-23T07:07:36.542Z,4.67
2019-04-23T07:17:57.377Z,4.50
2019-04-23T07:23:19.648Z,4.70
2019-04-23T07:28:48.255Z,5.40
2019-04-23T07:34:01.314Z,4.63
2019-04-23T07:39:27.298Z,5.77
2019-04-23T07:55:48.174Z,7.33
2019-04-23T08:01:05.014Z,6.77
2019-04-23T08:06:21.540Z,6.83
2019-04-23T08:11:45.804Z,6.87
2019-04-23T08:17:04.276Z,8.03
2019-04-23T08:27:51.783Z,7.90
2019-04-23T08:33:10.973Z,7.30
2019-04-23T08:38:36.263Z,7.47
2019-04-23T08:44:18.280Z,7.70
2019-04-23T08:49:22.195Z,7.33
2019-04-23T08:59:55.997Z,6.80
2019-04-23T09:05:15.822Z,6.93
2019-04-23T09:10:42.793Z,7.33
2019-04-23T09:15:56.587Z,7.30
2019-04-23T09:21:15.512Z,6.63
2019-04-23T09:26:33.172Z,7.13
2019-04-23T09:37:35.641Z,6.57
2019-04-23T09:48:18.129Z,5.60
2019-04-23T09:53:48.751Z,5.53
2019-04-23T09:59:08.967Z,4.97
2019-04-23T10:04:13.537Z,5.47
2019-04-23T10:09:20.431Z,6.07
2019-04-23T10:14:51.141Z,7.40
2019-04-23T10:20:00.526Z,6.17
2019-04-23T10:25:19.419Z,5.95
2019-04-23T10:30:38.492Z,6.20
2019-04-23T10:36:03.226Z,7.43
2019-04-23T10:41:18.328Z,6.40
2019-04-23T10:47:28.151Z,6.07
2019-04-23T10:52:36.211Z,7.00
2019-04-23T10:58:01.962Z,6.93
2019-04-23T11:03:42.218Z,6.90
2019-04-23T11:08:40.531Z,6.80
2019-04-23T11:14:09.672Z,7.50
2019-04-23T11:19:32.471Z,7.60
2019-04-23T11:30:19.601Z,8.17
2019-04-23T11:40:43.629Z,7.20
2019-04-23T11:46:29.340Z,7.70
2019-04-23T11:57:16.441Z,6.80
2019-04-23T12:02:19.014Z,7.40
2019-04-23T12:07:34.049Z,7.10
2019-04-23T12:12:57.672Z,6.73
2019-04-23T12:18:24.102Z,8.03
2019-04-23T12:23:52.297Z,7.77
2019-04-23T12:29:05.428Z,8.07
2019-04-23T12:34:26.158Z,7.37
2019-04-23T12:39:41.944Z,7.03
2019-04-23T12:45:07.012Z,6.67
2019-04-23T12:50:44.065Z,7.20
2019-04-23T12:55:40.034Z,7.08
2019-04-23T13:00:58.621Z,6.77
2019-04-23T13:06:20.415Z,8.53
2019-04-23T13:11:45.063Z,7.00
2019-04-23T13:17:11.519Z,7.70
2019-04-23T13:22:37.437Z,7.00
2019-04-23T13:27:56.601Z,5.93
2019-04-23T13:33:18.187Z,6.67
2019-04-23T13:43:42.565Z,6.37
2019-04-23T13:49:00.653Z,6.10
2019-04-23T13:54:48.947Z,6.13
2019-04-23T13:59:49.543Z,4.40
2019-04-23T14:10:34.181Z,4.10
2019-04-23T14:16:04.540Z,4.67
2019-04-23T14:21:19.051Z,4.87
2019-04-23T14:26:34.881Z,5.07
2019-04-23T14:32:05.196Z,4.50
2019-04-23T14:37:38.187Z,5.10
2019-04-23T14:42:44.912Z,4.90
2019-04-23T14:48:05.984Z,5.00
2019-04-23T14:53:20.292Z,4.80
2019-04-23T15:04:16.046Z,5.67
2019-04-23T15:14:59.862Z,4.80
2019-04-23T15:20:03.341Z,4.73
2019-04-23T15:25:36.710Z,5.13
2019-04-23T15:30:50.920Z,5.13
2019-04-23T15:36:27.417Z,4.90
2019-04-23T15:41:32.121Z,5.20
2019-04-23T15:46:50.314Z,5.47
2019-04-23T15:52:07.389Z,5.03
2019-04-23T15:57:48.975Z,4.87
2019-04-23T16:02:18.340Z,5.30
2019-04-23T16:07:54.878Z,4.53
2019-04-23T16:13:29.062Z,5.10
2019-04-23T16:19:05.488Z,5.03
2019-04-23T16:24:22.239Z,5.07
2019-04-23T16:29:44.109Z,6.13
2019-04-23T16:35:06.164Z,5.30
2019-04-23T16:40:19.531Z,5.43
2019-04-23T16:45:36.876Z,5.13
2019-04-23T16:51:12.238Z,5.23
2019-04-23T16:56:25.832Z,4.87
2019-04-23T17:01:35.343Z,4.80
2019-04-23T17:06:57.567Z,5.10
2019-04-23T17:17:41.048Z,5.17
2019-04-23T17:23:08.645Z,4.93
2019-04-23T17:28:23.317Z,4.67
2019-04-23T17:33:42.025Z,4.93
2019-04-23T17:50:01.589Z,5.80
2019-04-23T17:55:10.171Z,5.30
2019-04-23T18:05:52.310Z,5.35
2019-04-23T18:16:35.073Z,5.37
2019-04-23T18:22:07.416Z,5.20
2019-04-23T18:38:18.693Z,5.47
2019-04-23T18:54:15.186Z,5.13
2019-04-23T18:59:46.372Z,5.47
2019-04-23T19:10:36.042Z,5.07
2019-04-23T19:15:50.534Z,4.93
2019-04-23T19:21:15.610Z,5.03
2019-04-23T19:31:57.011Z,5.73
2019-04-23T19:37:23.847Z,5.20
2019-04-23T19:48:13.428Z,4.83
2019-04-23T19:53:32.353Z,5.47
2019-04-23T19:58:56.656Z,4.97
2019-04-23T20:03:56.145Z,5.20
2019-04-23T20:14:56.472Z,5.87
2019-04-23T20:20:02.893Z,5.63
2019-04-23T20:25:56.620Z,6.03
2019-04-23T20:36:21.739Z,6.63
2019-04-23T20:42:02.443Z,5.87
2019-04-23T20:47:10.228Z,5.87
2019-04-23T20:52:20.452Z,5.90
2019-04-23T20:57:56.865Z,6.47
2019-04-23T21:03:41.498Z,5.27
2019-04-23T21:09:11.692Z,6.07
2019-04-23T21:14:33.438Z,6.20
2019-04-23T21:19:42.152Z,6.33
2019-04-23T21:30:09.083Z,6.63
2019-04-23T21:36:03.129Z,6.37
2019-04-23T21:57:31.013Z,6.93
2019-04-23T22:02:45.560Z,6.00
2019-04-23T22:08:17.003Z,7.10
2019-04-23T22:18:48.489Z,6.60
2019-04-23T22:24:03.153Z,5.70
2019-04-23T22:34:46.904Z,5.53
2019-04-23T22:40:07.468Z,5.53
2019-04-23T22:45:29.338Z,6.13
2019-04-23T22:50:57.543Z,5.05
2019-04-23T23:01:50.381Z,4.60
2019-04-23T23:06:55.665Z,5.20
2019-04-23T23:12:34.153Z,5.00
2019-04-23T23:17:33.724Z,4.63
2019-04-23T23:22:59.155Z,4.60
2019-04-23T23:28:12.183Z,5.27
2019-04-23T23:33:36.252Z,5.10
2019-04-23T23:44:27.677Z,5.43
2019-04-23T23:49:34.396Z,5.80
2019-04-23T23:54:54.281Z,4.63
